sensor_id;sensor_type;location;lat;lon;timestamp;temperature;humidity
44565;DHT22;30275;51.822;-0.326;2023-04-07T00:00:02;6.40;99.90
44565;DHT22;30275;51.822;-0.326;2023-04-07T00:02:30;6.40;99.90
44565;DHT22;30275;51.822;-0.326;2023-04-07T00:04:56;6.40;99.90
44565;DHT22;30275;51.822;-0.326;2023-04-07T00:07:22;6.50;99.90
44565;DHT22;30275;51.822;-0.326;2023-04-07T00:09:48;6.60;99.90
44565;DHT22;30275;51.822;-0.326;2023-04-07T00:12:14;6.60;99.90
44565;DHT22;30275;51.822;-0.326;2023-04-07T00:14:39;6.60;99.90
44565;DHT22;30275;51.822;-0.326;2023-04-07T00:17:05;6.60;99.90
44565;DHT22;30275;51.822;-0.326;2023-04-07T00:19:30;6.60;99.90
44565;DHT22;30275;51.822;-0.326;2023-04-07T00:21:58;6.70;99.90
44565;DHT22;30275;51.822;-0.326;2023-04-07T00:24:23;6.80;99.90
44565;DHT22;30275;51.822;-0.326;2023-04-07T00:26:49;6.70;99.90
44565;DHT22;30275;51.822;-0.326;2023-04-07T00:29:15;6.80;99.90
44565;DHT22;30275;51.822;-0.326;2023-04-07T00:31:40;6.80;99.90
44565;DHT22;30275;51.822;-0.326;2023-04-07T00:34:06;6.70;99.90
44565;DHT22;30275;51.822;-0.326;2023-04-07T00:36:31;6.70;99.90
44565;DHT22;30275;51.822;-0.326;2023-04-07T00:38:57;6.60;99.90
44565;DHT22;30275;51.822;-0.326;2023-04-07T00:41:23;6.60;99.90
44565;DHT22;30275;51.822;-0.326;2023-04-07T00:43:49;6.40;99.90
44565;DHT22;30275;51.822;-0.326;2023-04-07T00:46:16;6.30;99.90
44565;DHT22;30275;51.822;-0.326;2023-04-07T00:48:42;6.20;99.90
44565;DHT22;30275;51.822;-0.326;2023-04-07T00:51:09;6.10;99.90
44565;DHT22;30275;51.822;-0.326;2023-04-07T00:53:34;6.10;99.90
44565;DHT22;30275;51.822;-0.326;2023-04-07T00:56:00;6.00;99.90
44565;DHT22;30275;51.822;-0.326;2023-04-07T00:58:26;5.90;99.90
44565;DHT22;30275;51.822;-0.326;2023-04-07T01:01:18;5.90;99.90
44565;DHT22;30275;51.822;-0.326;2023-04-07T01:03:52;5.80;99.90
44565;DHT22;30275;51.822;-0.326;2023-04-07T01:06:25;5.70;99.90
44565;DHT22;30275;51.822;-0.326;2023-04-07T01:09:06;5.70;99.90
44565;DHT22;30275;51.822;-0.326;2023-04-07T01:14:01;5.70;99.90
44565;DHT22;30275;51.822;-0.326;2023-04-07T01:16:48;5.70;99.90
44565;DHT22;30275;51.822;-0.326;2023-04-07T01:21:59;5.60;99.90
44565;DHT22;30275;51.822;-0.326;2023-04-07T01:24:53;5.60;99.90
44565;DHT22;30275;51.822;-0.326;2023-04-07T01:29:52;5.60;99.90
44565;DHT22;30275;51.822;-0.326;2023-04-07T01:32:19;5.60;99.90
44565;DHT22;30275;51.822;-0.326;2023-04-07T01:34:47;5.60;99.90
44565;DHT22;30275;51.822;-0.326;2023-04-07T01:37:14;5.60;99.90
44565;DHT22;30275;51.822;-0.326;2023-04-07T01:39:40;5.60;99.90
44565;DHT22;30275;51.822;-0.326;2023-04-07T01:42:07;5.60;99.90
44565;DHT22;30275;51.822;-0.326;2023-04-07T01:44:33;5.70;99.90
44565;DHT22;30275;51.822;-0.326;2023-04-07T01:47:00;5.70;99.90
44565;DHT22;30275;51.822;-0.326;2023-04-07T01:49:26;5.80;99.90
44565;DHT22;30275;51.822;-0.326;2023-04-07T01:51:53;5.80;99.90
44565;DHT22;30275;51.822;-0.326;2023-04-07T01:54:19;5.90;99.90
44565;DHT22;30275;51.822;-0.326;2023-04-07T01:56:45;5.90;99.90
44565;DHT22;30275;51.822;-0.326;2023-04-07T01:59:11;5.90;99.90
44565;DHT22;30275;51.822;-0.326;2023-04-07T02:01:37;5.80;99.90
44565;DHT22;30275;51.822;-0.326;2023-04-07T02:06:59;5.60;99.90
44565;DHT22;30275;51.822;-0.326;2023-04-07T02:09:24;5.50;99.90
44565;DHT22;30275;51.822;-0.326;2023-04-07T02:11:53;5.50;99.90
44565;DHT22;30275;51.822;-0.326;2023-04-07T02:14:20;5.60;99.90
44565;DHT22;30275;51.822;-0.326;2023-04-07T02:16:47;5.50;99.90
44565;DHT22;30275;51.822;-0.326;2023-04-07T02:19:13;5.60;99.90
44565;DHT22;30275;51.822;-0.326;2023-04-07T02:21:39;5.60;99.90
44565;DHT22;30275;51.822;-0.326;2023-04-07T02:24:05;5.60;99.90
44565;DHT22;30275;51.822;-0.326;2023-04-07T02:26:35;5.50;99.90
44565;DHT22;30275;51.822;-0.326;2023-04-07T02:29:01;5.40;99.90
44565;DHT22;30275;51.822;-0.326;2023-04-07T02:31:27;5.50;99.90
44565;DHT22;30275;51.822;-0.326;2023-04-07T02:33:53;5.40;99.90
44565;DHT22;30275;51.822;-0.326;2023-04-07T02:36:18;5.30;99.90
44565;DHT22;30275;51.822;-0.326;2023-04-07T02:38:44;5.30;99.90
44565;DHT22;30275;51.822;-0.326;2023-04-07T02:41:09;5.30;99.90
44565;DHT22;30275;51.822;-0.326;2023-04-07T02:43:35;5.30;99.90
44565;DHT22;30275;51.822;-0.326;2023-04-07T02:46:00;5.20;99.90
44565;DHT22;30275;51.822;-0.326;2023-04-07T02:48:26;5.20;99.90
44565;DHT22;30275;51.822;-0.326;2023-04-07T02:50:51;5.20;99.90
44565;DHT22;30275;51.822;-0.326;2023-04-07T02:53:17;5.10;99.90
44565;DHT22;30275;51.822;-0.326;2023-04-07T02:55:42;5.20;99.90
44565;DHT22;30275;51.822;-0.326;2023-04-07T02:58:08;5.20;99.90
44565;DHT22;30275;51.822;-0.326;2023-04-07T03:00:34;5.20;99.90
44565;DHT22;30275;51.822;-0.326;2023-04-07T03:02:59;5.20;99.90
44565;DHT22;30275;51.822;-0.326;2023-04-07T03:05:26;5.30;99.90
44565;DHT22;30275;51.822;-0.326;2023-04-07T03:07:51;5.50;99.90
44565;DHT22;30275;51.822;-0.326;2023-04-07T03:10:17;5.50;99.90
44565;DHT22;30275;51.822;-0.326;2023-04-07T03:12:43;5.60;99.90
44565;DHT22;30275;51.822;-0.326;2023-04-07T03:15:08;5.70;99.90
44565;DHT22;30275;51.822;-0.326;2023-04-07T03:17:34;5.80;99.90
44565;DHT22;30275;51.822;-0.326;2023-04-07T03:20:00;5.80;99.90
44565;DHT22;30275;51.822;-0.326;2023-04-07T03:22:25;5.90;99.90
44565;DHT22;30275;51.822;-0.326;2023-04-07T03:24:51;5.90;99.90
44565;DHT22;30275;51.822;-0.326;2023-04-07T03:27:16;5.90;99.90
44565;DHT22;30275;51.822;-0.326;2023-04-07T03:29:42;5.90;99.90
44565;DHT22;30275;51.822;-0.326;2023-04-07T03:32:08;6.00;99.90
44565;DHT22;30275;51.822;-0.326;2023-04-07T03:34:34;6.00;99.90
44565;DHT22;30275;51.822;-0.326;2023-04-07T03:36:59;6.10;99.90
44565;DHT22;30275;51.822;-0.326;2023-04-07T03:39:25;6.20;99.90
44565;DHT22;30275;51.822;-0.326;2023-04-07T03:41:51;6.20;99.90
44565;DHT22;30275;51.822;-0.326;2023-04-07T03:44:16;6.10;99.90
44565;DHT22;30275;51.822;-0.326;2023-04-07T03:46:42;6.10;99.90
44565;DHT22;30275;51.822;-0.326;2023-04-07T03:49:10;6.10;99.90
44565;DHT22;30275;51.822;-0.326;2023-04-07T03:51:35;6.10;99.90
44565;DHT22;30275;51.822;-0.326;2023-04-07T03:54:01;6.10;99.90
44565;DHT22;30275;51.822;-0.326;2023-04-07T03:56:27;6.10;99.90
44565;DHT22;30275;51.822;-0.326;2023-04-07T03:58:52;6.20;99.90
44565;DHT22;30275;51.822;-0.326;2023-04-07T04:01:18;6.20;99.90
44565;DHT22;30275;51.822;-0.326;2023-04-07T04:03:45;6.20;99.90
44565;DHT22;30275;51.822;-0.326;2023-04-07T04:06:11;6.20;99.90
44565;DHT22;30275;51.822;-0.326;2023-04-07T04:08:36;6.20;99.90
44565;DHT22;30275;51.822;-0.326;2023-04-07T04:11:02;6.20;99.90
44565;DHT22;30275;51.822;-0.326;2023-04-07T04:13:27;6.20;99.90
44565;DHT22;30275;51.822;-0.326;2023-04-07T04:15:53;6.30;99.90
44565;DHT22;30275;51.822;-0.326;2023-04-07T04:18:18;6.30;99.90
44565;DHT22;30275;51.822;-0.326;2023-04-07T04:20:45;6.30;99.90
44565;DHT22;30275;51.822;-0.326;2023-04-07T04:23:12;6.30;99.90
44565;DHT22;30275;51.822;-0.326;2023-04-07T04:25:37;6.30;99.90
44565;DHT22;30275;51.822;-0.326;2023-04-07T04:28:06;6.40;99.90
44565;DHT22;30275;51.822;-0.326;2023-04-07T04:30:31;6.40;99.90
44565;DHT22;30275;51.822;-0.326;2023-04-07T04:32:57;6.40;99.90
44565;DHT22;30275;51.822;-0.326;2023-04-07T04:35:23;6.40;99.90
44565;DHT22;30275;51.822;-0.326;2023-04-07T04:37:48;6.50;99.90
44565;DHT22;30275;51.822;-0.326;2023-04-07T04:40:14;6.50;99.90
44565;DHT22;30275;51.822;-0.326;2023-04-07T04:42:40;6.60;99.90
44565;DHT22;30275;51.822;-0.326;2023-04-07T04:45:06;6.60;99.90
44565;DHT22;30275;51.822;-0.326;2023-04-07T04:47:32;6.60;99.90
44565;DHT22;30275;51.822;-0.326;2023-04-07T04:49:57;6.60;99.90
44565;DHT22;30275;51.822;-0.326;2023-04-07T04:52:23;6.50;99.90
44565;DHT22;30275;51.822;-0.326;2023-04-07T04:54:49;6.60;99.90
44565;DHT22;30275;51.822;-0.326;2023-04-07T04:57:15;6.60;99.90
44565;DHT22;30275;51.822;-0.326;2023-04-07T04:59:41;6.60;99.90
44565;DHT22;30275;51.822;-0.326;2023-04-07T05:02:07;6.60;99.90
44565;DHT22;30275;51.822;-0.326;2023-04-07T05:04:32;6.60;99.90
44565;DHT22;30275;51.822;-0.326;2023-04-07T05:06:58;6.60;99.90
44565;DHT22;30275;51.822;-0.326;2023-04-07T05:09:23;6.60;99.90
44565;DHT22;30275;51.822;-0.326;2023-04-07T05:11:49;6.60;99.90
44565;DHT22;30275;51.822;-0.326;2023-04-07T05:14:14;6.60;99.90
44565;DHT22;30275;51.822;-0.326;2023-04-07T05:16:40;6.70;99.90
44565;DHT22;30275;51.822;-0.326;2023-04-07T05:19:06;6.60;99.90
44565;DHT22;30275;51.822;-0.326;2023-04-07T05:21:31;6.60;99.90
44565;DHT22;30275;51.822;-0.326;2023-04-07T05:23:57;6.60;99.90
44565;DHT22;30275;51.822;-0.326;2023-04-07T05:26:22;6.60;99.90
44565;DHT22;30275;51.822;-0.326;2023-04-07T05:28:48;6.60;99.90
44565;DHT22;30275;51.822;-0.326;2023-04-07T05:31:14;6.50;99.90
44565;DHT22;30275;51.822;-0.326;2023-04-07T05:33:39;6.50;99.90
44565;DHT22;30275;51.822;-0.326;2023-04-07T05:36:05;6.50;99.90
44565;DHT22;30275;51.822;-0.326;2023-04-07T05:38:31;6.50;99.90
44565;DHT22;30275;51.822;-0.326;2023-04-07T05:40:57;6.50;99.90
44565;DHT22;30275;51.822;-0.326;2023-04-07T05:43:23;6.50;99.90
44565;DHT22;30275;51.822;-0.326;2023-04-07T05:45:49;6.50;99.90
44565;DHT22;30275;51.822;-0.326;2023-04-07T05:48:14;6.60;99.90
44565;DHT22;30275;51.822;-0.326;2023-04-07T05:50:40;6.60;99.90
44565;DHT22;30275;51.822;-0.326;2023-04-07T05:53:06;6.80;99.90
44565;DHT22;30275;51.822;-0.326;2023-04-07T05:55:32;6.90;99.90
44565;DHT22;30275;51.822;-0.326;2023-04-07T05:57:58;7.00;99.90
44565;DHT22;30275;51.822;-0.326;2023-04-07T06:00:24;7.10;99.90
44565;DHT22;30275;51.822;-0.326;2023-04-07T06:02:49;7.20;99.90
44565;DHT22;30275;51.822;-0.326;2023-04-07T06:05:15;7.20;99.90
44565;DHT22;30275;51.822;-0.326;2023-04-07T06:07:41;7.20;99.90
44565;DHT22;30275;51.822;-0.326;2023-04-07T06:10:07;7.30;99.90
44565;DHT22;30275;51.822;-0.326;2023-04-07T06:12:32;7.40;99.90
44565;DHT22;30275;51.822;-0.326;2023-04-07T06:14:58;7.50;99.90
44565;DHT22;30275;51.822;-0.326;2023-04-07T06:17:23;7.50;99.90
44565;DHT22;30275;51.822;-0.326;2023-04-07T06:19:49;7.50;99.90
44565;DHT22;30275;51.822;-0.326;2023-04-07T06:22:15;7.60;99.90
44565;DHT22;30275;51.822;-0.326;2023-04-07T06:24:41;7.60;99.90
44565;DHT22;30275;51.822;-0.326;2023-04-07T06:27:07;7.60;99.90
44565;DHT22;30275;51.822;-0.326;2023-04-07T06:29:33;7.70;99.90
44565;DHT22;30275;51.822;-0.326;2023-04-07T06:31:59;7.90;99.90
44565;DHT22;30275;51.822;-0.326;2023-04-07T06:34:25;8.00;99.90
44565;DHT22;30275;51.822;-0.326;2023-04-07T06:36:50;8.20;99.90
44565;DHT22;30275;51.822;-0.326;2023-04-07T06:39:16;8.20;99.90
44565;DHT22;30275;51.822;-0.326;2023-04-07T06:41:42;8.30;99.90
44565;DHT22;30275;51.822;-0.326;2023-04-07T06:44:08;8.30;99.90
44565;DHT22;30275;51.822;-0.326;2023-04-07T06:46:35;8.30;99.90
44565;DHT22;30275;51.822;-0.326;2023-04-07T06:49:01;8.40;99.90
44565;DHT22;30275;51.822;-0.326;2023-04-07T06:51:28;8.30;99.90
44565;DHT22;30275;51.822;-0.326;2023-04-07T06:53:53;8.40;99.90
44565;DHT22;30275;51.822;-0.326;2023-04-07T06:56:21;8.30;99.90
44565;DHT22;30275;51.822;-0.326;2023-04-07T06:58:46;8.30;99.90
44565;DHT22;30275;51.822;-0.326;2023-04-07T07:01:12;8.20;99.90
44565;DHT22;30275;51.822;-0.326;2023-04-07T07:03:38;8.20;99.90
44565;DHT22;30275;51.822;-0.326;2023-04-07T07:06:03;8.00;99.90
44565;DHT22;30275;51.822;-0.326;2023-04-07T07:08:29;7.90;99.90
44565;DHT22;30275;51.822;-0.326;2023-04-07T07:10:55;7.80;99.90
44565;DHT22;30275;51.822;-0.326;2023-04-07T07:13:22;7.80;99.90
44565;DHT22;30275;51.822;-0.326;2023-04-07T07:15:49;7.70;99.90
44565;DHT22;30275;51.822;-0.326;2023-04-07T07:18:16;7.60;99.90
44565;DHT22;30275;51.822;-0.326;2023-04-07T07:20:41;7.70;99.90
44565;DHT22;30275;51.822;-0.326;2023-04-07T07:23:07;7.80;99.90
44565;DHT22;30275;51.822;-0.326;2023-04-07T07:25:32;7.80;99.90
44565;DHT22;30275;51.822;-0.326;2023-04-07T07:27:58;7.80;99.90
44565;DHT22;30275;51.822;-0.326;2023-04-07T07:30:23;7.70;99.90
44565;DHT22;30275;51.822;-0.326;2023-04-07T07:32:49;7.80;99.90
44565;DHT22;30275;51.822;-0.326;2023-04-07T07:35:15;7.90;99.90
44565;DHT22;30275;51.822;-0.326;2023-04-07T07:37:41;8.10;99.90
44565;DHT22;30275;51.822;-0.326;2023-04-07T07:40:09;8.20;99.90
44565;DHT22;30275;51.822;-0.326;2023-04-07T07:42:34;8.20;99.90
44565;DHT22;30275;51.822;-0.326;2023-04-07T07:45:00;8.40;99.90
44565;DHT22;30275;51.822;-0.326;2023-04-07T07:47:26;8.60;99.90
44565;DHT22;30275;51.822;-0.326;2023-04-07T07:49:52;8.60;99.90
44565;DHT22;30275;51.822;-0.326;2023-04-07T07:52:17;8.70;99.90
44565;DHT22;30275;51.822;-0.326;2023-04-07T07:54:45;8.80;99.90
44565;DHT22;30275;51.822;-0.326;2023-04-07T07:57:10;8.90;99.90
44565;DHT22;30275;51.822;-0.326;2023-04-07T07:59:37;9.60;99.90
44565;DHT22;30275;51.822;-0.326;2023-04-07T08:02:02;11.70;99.90
44565;DHT22;30275;51.822;-0.326;2023-04-07T08:04:28;14.20;99.90
44565;DHT22;30275;51.822;-0.326;2023-04-07T08:06:53;16.00;99.90
44565;DHT22;30275;51.822;-0.326;2023-04-07T08:09:20;17.40;96.90
44565;DHT22;30275;51.822;-0.326;2023-04-07T08:11:46;19.20;94.70
44565;DHT22;30275;51.822;-0.326;2023-04-07T08:14:15;20.40;92.30
44565;DHT22;30275;51.822;-0.326;2023-04-07T08:16:41;21.00;91.00
44565;DHT22;30275;51.822;-0.326;2023-04-07T08:19:07;21.70;89.90
44565;DHT22;30275;51.822;-0.326;2023-04-07T08:21:33;23.10;87.40
44565;DHT22;30275;51.822;-0.326;2023-04-07T08:23:58;23.60;84.50
44565;DHT22;30275;51.822;-0.326;2023-04-07T08:26:25;24.00;83.30
44565;DHT22;30275;51.822;-0.326;2023-04-07T08:28:51;24.50;80.70
44565;DHT22;30275;51.822;-0.326;2023-04-07T08:31:17;24.20;80.30
44565;DHT22;30275;51.822;-0.326;2023-04-07T08:33:42;24.30;80.20
44565;DHT22;30275;51.822;-0.326;2023-04-07T08:36:08;24.70;79.20
44565;DHT22;30275;51.822;-0.326;2023-04-07T08:38:33;25.40;78.20
44565;DHT22;30275;51.822;-0.326;2023-04-07T08:41:06;25.60;77.40
44565;DHT22;30275;51.822;-0.326;2023-04-07T08:43:34;25.80;75.50
44565;DHT22;30275;51.822;-0.326;2023-04-07T08:46:01;24.80;76.20
44565;DHT22;30275;51.822;-0.326;2023-04-07T08:48:29;24.80;76.10
44565;DHT22;30275;51.822;-0.326;2023-04-07T08:51:00;25.60;76.20
44565;DHT22;30275;51.822;-0.326;2023-04-07T08:53:36;25.30;75.10
44565;DHT22;30275;51.822;-0.326;2023-04-07T08:56:05;26.00;75.00
44565;DHT22;30275;51.822;-0.326;2023-04-07T08:58:31;26.20;74.20
44565;DHT22;30275;51.822;-0.326;2023-04-07T09:00:57;26.00;73.50
44565;DHT22;30275;51.822;-0.326;2023-04-07T09:03:24;26.10;73.60
44565;DHT22;30275;51.822;-0.326;2023-04-07T09:05:50;26.30;73.60
44565;DHT22;30275;51.822;-0.326;2023-04-07T09:08:16;27.10;72.40
44565;DHT22;30275;51.822;-0.326;2023-04-07T09:10:42;27.20;70.70
44565;DHT22;30275;51.822;-0.326;2023-04-07T09:13:07;27.10;70.80
44565;DHT22;30275;51.822;-0.326;2023-04-07T09:15:33;26.90;70.80
44565;DHT22;30275;51.822;-0.326;2023-04-07T09:17:59;27.70;71.00
44565;DHT22;30275;51.822;-0.326;2023-04-07T09:20:25;27.90;70.00
44565;DHT22;30275;51.822;-0.326;2023-04-07T09:22:51;27.50;69.20
44565;DHT22;30275;51.822;-0.326;2023-04-07T09:25:23;27.90;69.50
44565;DHT22;30275;51.822;-0.326;2023-04-07T09:28:02;27.70;69.40
44565;DHT22;30275;51.822;-0.326;2023-04-07T09:30:29;27.80;68.60
44565;DHT22;30275;51.822;-0.326;2023-04-07T09:32:56;27.80;67.90
44565;DHT22;30275;51.822;-0.326;2023-04-07T09:35:22;27.90;69.50
44565;DHT22;30275;51.822;-0.326;2023-04-07T09:40:27;27.60;69.50
44565;DHT22;30275;51.822;-0.326;2023-04-07T09:42:52;28.70;68.10
44565;DHT22;30275;51.822;-0.326;2023-04-07T09:45:26;28.70;66.50
44565;DHT22;30275;51.822;-0.326;2023-04-07T09:47:52;28.60;67.00
44565;DHT22;30275;51.822;-0.326;2023-04-07T09:50:49;28.90;67.30
44565;DHT22;30275;51.822;-0.326;2023-04-07T09:53:16;29.30;67.00
44565;DHT22;30275;51.822;-0.326;2023-04-07T09:55:43;29.20;66.50
44565;DHT22;30275;51.822;-0.326;2023-04-07T09:58:11;28.40;66.60
44565;DHT22;30275;51.822;-0.326;2023-04-07T10:00:39;28.10;66.90
44565;DHT22;30275;51.822;-0.326;2023-04-07T10:03:06;28.80;67.10
44565;DHT22;30275;51.822;-0.326;2023-04-07T10:05:33;28.70;67.00
44565;DHT22;30275;51.822;-0.326;2023-04-07T10:08:00;28.40;66.40
44565;DHT22;30275;51.822;-0.326;2023-04-07T10:10:27;29.00;66.50
44565;DHT22;30275;51.822;-0.326;2023-04-07T10:12:53;28.90;66.40
44565;DHT22;30275;51.822;-0.326;2023-04-07T10:15:20;29.00;66.10
44565;DHT22;30275;51.822;-0.326;2023-04-07T10:17:46;28.60;66.30
44565;DHT22;30275;51.822;-0.326;2023-04-07T10:20:17;28.60;66.10
44565;DHT22;30275;51.822;-0.326;2023-04-07T10:22:45;28.00;66.30
44565;DHT22;30275;51.822;-0.326;2023-04-07T10:25:16;28.80;65.20
44565;DHT22;30275;51.822;-0.326;2023-04-07T10:30:24;28.80;65.90
44565;DHT22;30275;51.822;-0.326;2023-04-07T10:32:51;28.80;65.20
44565;DHT22;30275;51.822;-0.326;2023-04-07T10:35:17;29.20;64.00
44565;DHT22;30275;51.822;-0.326;2023-04-07T10:40:31;30.40;63.70
44565;DHT22;30275;51.822;-0.326;2023-04-07T10:42:57;30.60;62.90
44565;DHT22;30275;51.822;-0.326;2023-04-07T10:45:55;30.60;62.80
44565;DHT22;30275;51.822;-0.326;2023-04-07T10:48:24;29.60;63.70
44565;DHT22;30275;51.822;-0.326;2023-04-07T10:53:30;29.30;63.60
44565;DHT22;30275;51.822;-0.326;2023-04-07T10:55:56;27.70;63.20
44565;DHT22;30275;51.822;-0.326;2023-04-07T10:58:30;27.10;64.70
44565;DHT22;30275;51.822;-0.326;2023-04-07T11:03:22;26.80;62.90
44565;DHT22;30275;51.822;-0.326;2023-04-07T11:05:48;27.10;65.30
44565;DHT22;30275;51.822;-0.326;2023-04-07T11:08:14;26.50;65.30
44565;DHT22;30275;51.822;-0.326;2023-04-07T11:10:40;27.40;65.10
44565;DHT22;30275;51.822;-0.326;2023-04-07T11:13:11;26.90;64.40
44565;DHT22;30275;51.822;-0.326;2023-04-07T11:15:37;26.10;66.30
44565;DHT22;30275;51.822;-0.326;2023-04-07T11:18:17;25.70;66.30
44565;DHT22;30275;51.822;-0.326;2023-04-07T11:23:11;23.40;68.10
44565;DHT22;30275;51.822;-0.326;2023-04-07T11:25:37;21.80;68.50
44565;DHT22;30275;51.822;-0.326;2023-04-07T11:28:03;20.20;72.20
44565;DHT22;30275;51.822;-0.326;2023-04-07T11:30:29;20.50;73.30
44565;DHT22;30275;51.822;-0.326;2023-04-07T11:32:55;22.10;73.20
44565;DHT22;30275;51.822;-0.326;2023-04-07T11:35:22;24.30;68.60
44565;DHT22;30275;51.822;-0.326;2023-04-07T11:37:47;24.40;66.00
44565;DHT22;30275;51.822;-0.326;2023-04-07T11:40:13;25.80;63.70
44565;DHT22;30275;51.822;-0.326;2023-04-07T11:42:55;27.60;63.10
44565;DHT22;30275;51.822;-0.326;2023-04-07T11:45:21;27.70;62.80
44565;DHT22;30275;51.822;-0.326;2023-04-07T11:47:46;28.30;62.90
44565;DHT22;30275;51.822;-0.326;2023-04-07T11:50:14;25.60;62.30
44565;DHT22;30275;51.822;-0.326;2023-04-07T11:52:46;22.20;65.20
44565;DHT22;30275;51.822;-0.326;2023-04-07T11:55:17;19.70;68.60
44565;DHT22;30275;51.822;-0.326;2023-04-07T11:57:43;18.50;72.00
44565;DHT22;30275;51.822;-0.326;2023-04-07T12:00:13;19.60;73.20
44565;DHT22;30275;51.822;-0.326;2023-04-07T12:02:40;19.80;71.40
44565;DHT22;30275;51.822;-0.326;2023-04-07T12:05:06;20.50;70.00
44565;DHT22;30275;51.822;-0.326;2023-04-07T12:07:37;21.60;70.40
44565;DHT22;30275;51.822;-0.326;2023-04-07T12:10:23;22.20;71.40
44565;DHT22;30275;51.822;-0.326;2023-04-07T12:12:51;23.50;69.10
44565;DHT22;30275;51.822;-0.326;2023-04-07T12:15:17;23.70;67.80
44565;DHT22;30275;51.822;-0.326;2023-04-07T12:17:44;24.30;67.70
44565;DHT22;30275;51.822;-0.326;2023-04-07T12:20:11;24.50;66.30
44565;DHT22;30275;51.822;-0.326;2023-04-07T12:22:37;24.80;65.30
44565;DHT22;30275;51.822;-0.326;2023-04-07T12:25:03;24.80;66.40
44565;DHT22;30275;51.822;-0.326;2023-04-07T12:27:28;24.20;67.00
44565;DHT22;30275;51.822;-0.326;2023-04-07T12:29:54;22.40;66.90
44565;DHT22;30275;51.822;-0.326;2023-04-07T12:32:20;20.50;66.10
44565;DHT22;30275;51.822;-0.326;2023-04-07T12:34:45;18.80;70.30
44565;DHT22;30275;51.822;-0.326;2023-04-07T12:37:12;17.60;74.40
44565;DHT22;30275;51.822;-0.326;2023-04-07T12:39:37;17.20;75.00
44565;DHT22;30275;51.822;-0.326;2023-04-07T12:42:03;16.90;77.00
44565;DHT22;30275;51.822;-0.326;2023-04-07T12:44:29;16.30;78.80
44565;DHT22;30275;51.822;-0.326;2023-04-07T12:46:55;16.60;80.10
44565;DHT22;30275;51.822;-0.326;2023-04-07T12:49:21;16.70;78.80
44565;DHT22;30275;51.822;-0.326;2023-04-07T12:51:46;16.90;81.00
44565;DHT22;30275;51.822;-0.326;2023-04-07T12:54:12;16.80;78.50
44565;DHT22;30275;51.822;-0.326;2023-04-07T12:56:39;16.70;77.90
44565;DHT22;30275;51.822;-0.326;2023-04-07T12:59:06;16.40;77.40
44565;DHT22;30275;51.822;-0.326;2023-04-07T13:01:32;16.30;78.60
44565;DHT22;30275;51.822;-0.326;2023-04-07T13:03:59;16.00;80.60
44565;DHT22;30275;51.822;-0.326;2023-04-07T13:06:26;15.90;81.00
44565;DHT22;30275;51.822;-0.326;2023-04-07T13:08:51;16.10;78.40
44565;DHT22;30275;51.822;-0.326;2023-04-07T13:11:17;16.30;79.20
44565;DHT22;30275;51.822;-0.326;2023-04-07T13:13:43;16.40;79.20
44565;DHT22;30275;51.822;-0.326;2023-04-07T13:16:08;16.60;77.10
44565;DHT22;30275;51.822;-0.326;2023-04-07T13:18:34;16.50;76.20
44565;DHT22;30275;51.822;-0.326;2023-04-07T13:21:01;16.50;77.50
44565;DHT22;30275;51.822;-0.326;2023-04-07T13:23:27;16.30;80.40
44565;DHT22;30275;51.822;-0.326;2023-04-07T13:25:52;16.30;80.40
44565;DHT22;30275;51.822;-0.326;2023-04-07T13:28:18;16.30;78.90
44565;DHT22;30275;51.822;-0.326;2023-04-07T13:30:45;16.30;79.70
44565;DHT22;30275;51.822;-0.326;2023-04-07T13:33:20;15.90;78.10
44565;DHT22;30275;51.822;-0.326;2023-04-07T13:35:46;15.70;80.30
44565;DHT22;30275;51.822;-0.326;2023-04-07T13:38:11;15.80;78.50
44565;DHT22;30275;51.822;-0.326;2023-04-07T13:40:37;15.90;81.50
44565;DHT22;30275;51.822;-0.326;2023-04-07T13:43:03;15.70;82.40
44565;DHT22;30275;51.822;-0.326;2023-04-07T13:45:28;15.50;81.20
44565;DHT22;30275;51.822;-0.326;2023-04-07T13:47:54;15.60;82.70
44565;DHT22;30275;51.822;-0.326;2023-04-07T13:50:19;15.90;82.70
44565;DHT22;30275;51.822;-0.326;2023-04-07T13:52:45;16.10;79.50
44565;DHT22;30275;51.822;-0.326;2023-04-07T13:55:11;16.30;79.40
44565;DHT22;30275;51.822;-0.326;2023-04-07T13:57:37;16.60;78.50
44565;DHT22;30275;51.822;-0.326;2023-04-07T14:00:02;16.70;76.60
44565;DHT22;30275;51.822;-0.326;2023-04-07T14:02:28;16.70;73.50
44565;DHT22;30275;51.822;-0.326;2023-04-07T14:04:54;16.80;75.90
44565;DHT22;30275;51.822;-0.326;2023-04-07T14:07:20;16.50;76.20
44565;DHT22;30275;51.822;-0.326;2023-04-07T14:09:47;16.00;77.50
44565;DHT22;30275;51.822;-0.326;2023-04-07T14:12:13;15.60;77.50
44565;DHT22;30275;51.822;-0.326;2023-04-07T14:14:39;15.30;79.60
44565;DHT22;30275;51.822;-0.326;2023-04-07T14:17:04;15.00;79.10
44565;DHT22;30275;51.822;-0.326;2023-04-07T14:19:31;14.90;81.30
44565;DHT22;30275;51.822;-0.326;2023-04-07T14:21:58;14.90;80.50
44565;DHT22;30275;51.822;-0.326;2023-04-07T14:24:24;15.10;78.10
44565;DHT22;30275;51.822;-0.326;2023-04-07T14:26:49;15.60;79.40
44565;DHT22;30275;51.822;-0.326;2023-04-07T14:29:15;16.00;79.50
44565;DHT22;30275;51.822;-0.326;2023-04-07T14:31:41;16.40;78.30
44565;DHT22;30275;51.822;-0.326;2023-04-07T14:34:08;16.50;79.30
44565;DHT22;30275;51.822;-0.326;2023-04-07T14:36:33;16.30;77.10
44565;DHT22;30275;51.822;-0.326;2023-04-07T14:38:59;16.30;78.40
44565;DHT22;30275;51.822;-0.326;2023-04-07T14:41:26;16.40;75.80
44565;DHT22;30275;51.822;-0.326;2023-04-07T14:43:51;16.40;78.50
44565;DHT22;30275;51.822;-0.326;2023-04-07T14:46:24;16.30;74.20
44565;DHT22;30275;51.822;-0.326;2023-04-07T14:48:50;16.20;73.80
44565;DHT22;30275;51.822;-0.326;2023-04-07T14:51:17;16.00;75.20
44565;DHT22;30275;51.822;-0.326;2023-04-07T14:53:43;15.50;76.70
44565;DHT22;30275;51.822;-0.326;2023-04-07T14:56:10;15.20;78.50
44565;DHT22;30275;51.822;-0.326;2023-04-07T14:58:36;14.90;79.50
44565;DHT22;30275;51.822;-0.326;2023-04-07T15:01:04;14.90;80.50
44565;DHT22;30275;51.822;-0.326;2023-04-07T15:03:29;14.80;79.20
44565;DHT22;30275;51.822;-0.326;2023-04-07T15:05:55;14.60;81.70
44565;DHT22;30275;51.822;-0.326;2023-04-07T15:08:21;14.70;81.40
44565;DHT22;30275;51.822;-0.326;2023-04-07T15:10:46;14.30;82.10
44565;DHT22;30275;51.822;-0.326;2023-04-07T15:13:12;14.20;83.90
44565;DHT22;30275;51.822;-0.326;2023-04-07T15:15:37;14.10;83.50
44565;DHT22;30275;51.822;-0.326;2023-04-07T15:18:03;14.00;83.90
44565;DHT22;30275;51.822;-0.326;2023-04-07T15:20:28;14.10;83.90
44565;DHT22;30275;51.822;-0.326;2023-04-07T15:22:55;14.20;80.30
44565;DHT22;30275;51.822;-0.326;2023-04-07T15:25:21;14.50;79.90
44565;DHT22;30275;51.822;-0.326;2023-04-07T15:27:47;14.90;80.30
44565;DHT22;30275;51.822;-0.326;2023-04-07T15:30:13;15.00;79.20
44565;DHT22;30275;51.822;-0.326;2023-04-07T15:32:39;15.00;77.10
44565;DHT22;30275;51.822;-0.326;2023-04-07T15:35:05;15.00;77.90
44565;DHT22;30275;51.822;-0.326;2023-04-07T15:37:31;14.90;81.60
44565;DHT22;30275;51.822;-0.326;2023-04-07T15:39:56;14.90;81.60
44565;DHT22;30275;51.822;-0.326;2023-04-07T15:42:22;14.80;81.80
44565;DHT22;30275;51.822;-0.326;2023-04-07T15:44:47;14.80;83.10